sensor_id;sensor_type;location;lat;lon;timestamp;temperature;humidity
9033;DHT22;4551;53.164;8.210;2023-04-16T00:00:23;8.40;99.90
9033;DHT22;4551;53.164;8.210;2023-04-16T00:02:51;8.40;99.90
9033;DHT22;4551;53.164;8.210;2023-04-16T00:05:20;8.40;99.90
9033;DHT22;4551;53.164;8.210;2023-04-16T00:07:48;8.40;99.90
9033;DHT22;4551;53.164;8.210;2023-04-16T00:10:18;8.40;99.90
9033;DHT22;4551;53.164;8.210;2023-04-16T00:12:46;8.40;99.90
9033;DHT22;4551;53.164;8.210;2023-04-16T00:15:18;8.40;99.90
9033;DHT22;4551;53.164;8.210;2023-04-16T00:17:46;8.40;99.90
9033;DHT22;4551;53.164;8.210;2023-04-16T00:20:19;8.40;99.90
9033;DHT22;4551;53.164;8.210;2023-04-16T00:22:47;8.40;99.90
9033;DHT22;4551;53.164;8.210;2023-04-16T00:25:16;8.40;99.90
9033;DHT22;4551;53.164;8.210;2023-04-16T00:27:45;8.40;99.90
9033;DHT22;4551;53.164;8.210;2023-04-16T00:30:13;8.30;99.90
9033;DHT22;4551;53.164;8.210;2023-04-16T00:32:41;8.30;99.90
9033;DHT22;4551;53.164;8.210;2023-04-16T00:35:11;8.30;99.90
9033;DHT22;4551;53.164;8.210;2023-04-16T00:37:45;8.30;99.90
9033;DHT22;4551;53.164;8.210;2023-04-16T00:40:13;8.30;99.90
9033;DHT22;4551;53.164;8.210;2023-04-16T00:42:41;8.30;99.90
9033;DHT22;4551;53.164;8.210;2023-04-16T00:45:18;8.30;99.90
9033;DHT22;4551;53.164;8.210;2023-04-16T00:47:50;8.30;99.90
9033;DHT22;4551;53.164;8.210;2023-04-16T00:50:19;8.30;99.90
9033;DHT22;4551;53.164;8.210;2023-04-16T00:52:47;8.30;99.90
9033;DHT22;4551;53.164;8.210;2023-04-16T00:55:15;8.30;99.90
9033;DHT22;4551;53.164;8.210;2023-04-16T00:57:48;8.30;99.90
9033;DHT22;4551;53.164;8.210;2023-04-16T01:00:19;8.30;99.90
9033;DHT22;4551;53.164;8.210;2023-04-16T01:02:47;8.30;99.90
9033;DHT22;4551;53.164;8.210;2023-04-16T01:05:15;8.20;99.90
9033;DHT22;4551;53.164;8.210;2023-04-16T01:07:43;8.20;99.90
9033;DHT22;4551;53.164;8.210;2023-04-16T01:10:11;8.20;99.90
9033;DHT22;4551;53.164;8.210;2023-04-16T01:12:39;8.20;99.90
9033;DHT22;4551;53.164;8.210;2023-04-16T01:15:08;8.20;99.90
9033;DHT22;4551;53.164;8.210;2023-04-16T01:17:38;8.20;99.90
9033;DHT22;4551;53.164;8.210;2023-04-16T01:20:07;8.10;99.90
9033;DHT22;4551;53.164;8.210;2023-04-16T01:22:36;8.20;99.90
9033;DHT22;4551;53.164;8.210;2023-04-16T01:25:04;8.10;99.90
9033;DHT22;4551;53.164;8.210;2023-04-16T01:27:33;8.10;99.90
9033;DHT22;4551;53.164;8.210;2023-04-16T01:30:03;8.10;99.90
9033;DHT22;4551;53.164;8.210;2023-04-16T01:32:32;8.50;99.90
9033;DHT22;4551;53.164;8.210;2023-04-16T01:35:00;8.10;99.90
9033;DHT22;4551;53.164;8.210;2023-04-16T01:37:28;8.00;99.90
9033;DHT22;4551;53.164;8.210;2023-04-16T01:40:00;8.00;99.90
9033;DHT22;4551;53.164;8.210;2023-04-16T01:42:29;8.00;99.90
9033;DHT22;4551;53.164;8.210;2023-04-16T01:45:03;8.00;99.90
9033;DHT22;4551;53.164;8.210;2023-04-16T01:47:34;8.00;99.90
9033;DHT22;4551;53.164;8.210;2023-04-16T01:50:02;8.00;99.90
9033;DHT22;4551;53.164;8.210;2023-04-16T01:52:31;8.00;99.90
9033;DHT22;4551;53.164;8.210;2023-04-16T01:55:00;7.90;99.90
9033;DHT22;4551;53.164;8.210;2023-04-16T01:57:29;7.90;99.90
9033;DHT22;4551;53.164;8.210;2023-04-16T01:59:57;7.90;99.90
9033;DHT22;4551;53.164;8.210;2023-04-16T02:02:25;7.90;99.90
9033;DHT22;4551;53.164;8.210;2023-04-16T02:04:56;7.90;99.90
9033;DHT22;4551;53.164;8.210;2023-04-16T02:07:24;7.90;99.90
9033;DHT22;4551;53.164;8.210;2023-04-16T02:09:56;7.90;99.90
9033;DHT22;4551;53.164;8.210;2023-04-16T02:12:26;7.90;99.90
9033;DHT22;4551;53.164;8.210;2023-04-16T02:14:54;7.80;99.90
9033;DHT22;4551;53.164;8.210;2023-04-16T02:17:22;7.80;99.90
9033;DHT22;4551;53.164;8.210;2023-04-16T02:20:05;7.80;99.90
9033;DHT22;4551;53.164;8.210;2023-04-16T02:22:36;7.80;99.90
9033;DHT22;4551;53.164;8.210;2023-04-16T02:25:04;7.80;99.90
9033;DHT22;4551;53.164;8.210;2023-04-16T02:27:34;7.80;99.90
9033;DHT22;4551;53.164;8.210;2023-04-16T02:30:02;7.80;99.90
9033;DHT22;4551;53.164;8.210;2023-04-16T02:32:30;7.80;99.90
9033;DHT22;4551;53.164;8.210;2023-04-16T02:34:58;7.80;99.90
9033;DHT22;4551;53.164;8.210;2023-04-16T02:37:28;7.80;99.90
9033;DHT22;4551;53.164;8.210;2023-04-16T02:40:16;7.80;99.90
9033;DHT22;4551;53.164;8.210;2023-04-16T02:42:46;7.80;99.90
9033;DHT22;4551;53.164;8.210;2023-04-16T02:45:20;7.80;99.90
9033;DHT22;4551;53.164;8.210;2023-04-16T02:47:48;7.80;99.90
9033;DHT22;4551;53.164;8.210;2023-04-16T02:50:18;7.80;99.90
9033;DHT22;4551;53.164;8.210;2023-04-16T02:52:47;7.80;99.90
9033;DHT22;4551;53.164;8.210;2023-04-16T02:55:15;7.80;99.90
9033;DHT22;4551;53.164;8.210;2023-04-16T02:57:44;7.80;99.90
9033;DHT22;4551;53.164;8.210;2023-04-16T03:00:14;7.80;99.90
9033;DHT22;4551;53.164;8.210;2023-04-16T03:02:42;7.80;99.90
9033;DHT22;4551;53.164;8.210;2023-04-16T03:05:12;7.80;99.90
9033;DHT22;4551;53.164;8.210;2023-04-16T03:07:40;7.80;99.90
9033;DHT22;4551;53.164;8.210;2023-04-16T03:10:09;7.80;99.90
9033;DHT22;4551;53.164;8.210;2023-04-16T03:12:46;7.80;99.90
9033;DHT22;4551;53.164;8.210;2023-04-16T03:15:20;7.80;99.90
9033;DHT22;4551;53.164;8.210;2023-04-16T03:17:50;7.80;99.90
9033;DHT22;4551;53.164;8.210;2023-04-16T03:20:22;7.80;99.90
9033;DHT22;4551;53.164;8.210;2023-04-16T03:22:50;7.80;99.90
9033;DHT22;4551;53.164;8.210;2023-04-16T03:25:21;7.80;99.90
9033;DHT22;4551;53.164;8.210;2023-04-16T03:27:49;7.80;99.90
9033;DHT22;4551;53.164;8.210;2023-04-16T03:30:23;7.80;99.90
9033;DHT22;4551;53.164;8.210;2023-04-16T03:32:51;7.80;99.90
9033;DHT22;4551;53.164;8.210;2023-04-16T03:35:19;7.80;99.90
9033;DHT22;4551;53.164;8.210;2023-04-16T03:37:50;7.80;99.90
9033;DHT22;4551;53.164;8.210;2023-04-16T03:40:20;7.80;99.90
9033;DHT22;4551;53.164;8.210;2023-04-16T03:42:48;7.80;99.90
9033;DHT22;4551;53.164;8.210;2023-04-16T03:45:18;7.80;99.90
9033;DHT22;4551;53.164;8.210;2023-04-16T03:47:48;7.80;99.90
9033;DHT22;4551;53.164;8.210;2023-04-16T03:50:22;7.80;99.90
9033;DHT22;4551;53.164;8.210;2023-04-16T03:52:50;7.80;99.90
9033;DHT22;4551;53.164;8.210;2023-04-16T03:55:18;7.90;99.90
9033;DHT22;4551;53.164;8.210;2023-04-16T03:57:47;7.90;99.90
9033;DHT22;4551;53.164;8.210;2023-04-16T04:00:15;7.90;99.90
9033;DHT22;4551;53.164;8.210;2023-04-16T04:02:48;7.90;99.90
9033;DHT22;4551;53.164;8.210;2023-04-16T04:05:17;7.90;99.90
9033;DHT22;4551;53.164;8.210;2023-04-16T04:07:46;7.90;99.90
9033;DHT22;4551;53.164;8.210;2023-04-16T04:10:14;7.90;99.90
9033;DHT22;4551;53.164;8.210;2023-04-16T04:12:48;7.90;99.90
9033;DHT22;4551;53.164;8.210;2023-04-16T04:15:18;8.00;99.90
9033;DHT22;4551;53.164;8.210;2023-04-16T04:17:46;7.90;99.90
9033;DHT22;4551;53.164;8.210;2023-04-16T04:20:16;7.90;99.90
9033;DHT22;4551;53.164;8.210;2023-04-16T04:22:44;7.90;99.90
9033;DHT22;4551;53.164;8.210;2023-04-16T04:25:12;8.00;99.90
9033;DHT22;4551;53.164;8.210;2023-04-16T04:27:43;8.00;99.90
9033;DHT22;4551;53.164;8.210;2023-04-16T04:30:11;8.00;99.90
9033;DHT22;4551;53.164;8.210;2023-04-16T04:32:39;8.00;99.90
9033;DHT22;4551;53.164;8.210;2023-04-16T04:35:08;8.00;99.90
9033;DHT22;4551;53.164;8.210;2023-04-16T04:37:37;8.00;99.90
9033;DHT22;4551;53.164;8.210;2023-04-16T04:40:06;8.00;99.90
9033;DHT22;4551;53.164;8.210;2023-04-16T04:42:35;8.00;99.90
9033;DHT22;4551;53.164;8.210;2023-04-16T04:45:03;8.00;99.90
9033;DHT22;4551;53.164;8.210;2023-04-16T04:47:35;8.00;99.90
9033;DHT22;4551;53.164;8.210;2023-04-16T04:50:06;8.10;99.90
9033;DHT22;4551;53.164;8.210;2023-04-16T04:52:34;8.00;99.90
9033;DHT22;4551;53.164;8.210;2023-04-16T04:55:04;8.10;99.90
9033;DHT22;4551;53.164;8.210;2023-04-16T04:57:32;8.00;99.90
9033;DHT22;4551;53.164;8.210;2023-04-16T05:00:00;8.00;99.90
9033;DHT22;4551;53.164;8.210;2023-04-16T05:02:31;8.10;99.90
9033;DHT22;4551;53.164;8.210;2023-04-16T05:04:59;8.10;99.90
9033;DHT22;4551;53.164;8.210;2023-04-16T05:07:27;8.10;99.90
9033;DHT22;4551;53.164;8.210;2023-04-16T05:09:55;8.10;99.90
9033;DHT22;4551;53.164;8.210;2023-04-16T05:12:25;8.10;99.90
9033;DHT22;4551;53.164;8.210;2023-04-16T05:14:53;8.10;99.90
9033;DHT22;4551;53.164;8.210;2023-04-16T05:17:21;8.10;99.90
9033;DHT22;4551;53.164;8.210;2023-04-16T05:19:49;8.10;99.90
9033;DHT22;4551;53.164;8.210;2023-04-16T05:22:17;8.60;99.90
9033;DHT22;4551;53.164;8.210;2023-04-16T05:24:46;8.20;99.90
9033;DHT22;4551;53.164;8.210;2023-04-16T05:27:14;8.20;99.90
9033;DHT22;4551;53.164;8.210;2023-04-16T05:29:43;8.20;99.90
9033;DHT22;4551;53.164;8.210;2023-04-16T05:32:11;8.20;99.90
9033;DHT22;4551;53.164;8.210;2023-04-16T05:34:39;8.30;99.90
9033;DHT22;4551;53.164;8.210;2023-04-16T05:37:08;8.30;99.90
9033;DHT22;4551;53.164;8.210;2023-04-16T05:39:37;8.30;99.90
9033;DHT22;4551;53.164;8.210;2023-04-16T05:42:06;8.30;99.90
9033;DHT22;4551;53.164;8.210;2023-04-16T05:44:34;8.40;99.90
9033;DHT22;4551;53.164;8.210;2023-04-16T05:47:03;8.40;99.90
9033;DHT22;4551;53.164;8.210;2023-04-16T05:49:33;8.50;99.90
9033;DHT22;4551;53.164;8.210;2023-04-16T05:52:01;8.60;99.90
9033;DHT22;4551;53.164;8.210;2023-04-16T05:54:29;8.60;99.90
9033;DHT22;4551;53.164;8.210;2023-04-16T05:56:58;8.60;99.90
9033;DHT22;4551;53.164;8.210;2023-04-16T05:59:26;8.60;99.90
9033;DHT22;4551;53.164;8.210;2023-04-16T06:01:55;8.70;99.90
9033;DHT22;4551;53.164;8.210;2023-04-16T06:04:24;8.70;99.90
9033;DHT22;4551;53.164;8.210;2023-04-16T06:06:52;8.70;99.90
9033;DHT22;4551;53.164;8.210;2023-04-16T06:09:20;9.00;99.90
9033;DHT22;4551;53.164;8.210;2023-04-16T06:11:48;8.80;99.90
9033;DHT22;4551;53.164;8.210;2023-04-16T06:14:19;8.80;99.90
9033;DHT22;4551;53.164;8.210;2023-04-16T06:16:47;8.80;99.90
9033;DHT22;4551;53.164;8.210;2023-04-16T06:19:15;8.90;99.90
9033;DHT22;4551;53.164;8.210;2023-04-16T06:21:45;8.90;99.90
9033;DHT22;4551;53.164;8.210;2023-04-16T06:24:13;8.90;99.90
9033;DHT22;4551;53.164;8.210;2023-04-16T06:26:41;9.00;99.90
9033;DHT22;4551;53.164;8.210;2023-04-16T06:29:10;9.00;99.90
9033;DHT22;4551;53.164;8.210;2023-04-16T06:31:38;9.10;99.90
9033;DHT22;4551;53.164;8.210;2023-04-16T06:34:06;9.10;99.90
9033;DHT22;4551;53.164;8.210;2023-04-16T06:36:35;9.20;99.90
9033;DHT22;4551;53.164;8.210;2023-04-16T06:39:04;9.20;99.90
9033;DHT22;4551;53.164;8.210;2023-04-16T06:41:32;9.30;99.90
9033;DHT22;4551;53.164;8.210;2023-04-16T06:44:00;9.30;99.90
9033;DHT22;4551;53.164;8.210;2023-04-16T06:46:28;9.40;99.90
9033;DHT22;4551;53.164;8.210;2023-04-16T06:48:57;9.40;99.90
9033;DHT22;4551;53.164;8.210;2023-04-16T06:51:25;9.50;99.90
9033;DHT22;4551;53.164;8.210;2023-04-16T06:53:53;9.50;99.90
9033;DHT22;4551;53.164;8.210;2023-04-16T06:56:22;9.50;99.90
9033;DHT22;4551;53.164;8.210;2023-04-16T06:58:50;9.60;99.90
9033;DHT22;4551;53.164;8.210;2023-04-16T07:01:21;9.60;99.90
9033;DHT22;4551;53.164;8.210;2023-04-16T07:03:49;9.60;99.90
9033;DHT22;4551;53.164;8.210;2023-04-16T07:06:18;9.70;99.90
9033;DHT22;4551;53.164;8.210;2023-04-16T07:08:46;9.70;99.90
9033;DHT22;4551;53.164;8.210;2023-04-16T07:11:14;9.70;99.90
9033;DHT22;4551;53.164;8.210;2023-04-16T07:13:44;9.70;99.90
9033;DHT22;4551;53.164;8.210;2023-04-16T07:16:17;9.70;99.90
9033;DHT22;4551;53.164;8.210;2023-04-16T07:18:59;9.80;99.90
9033;DHT22;4551;53.164;8.210;2023-04-16T07:21:32;9.80;99.90
9033;DHT22;4551;53.164;8.210;2023-04-16T07:24:00;9.90;99.90
9033;DHT22;4551;53.164;8.210;2023-04-16T07:26:28;9.90;99.90
9033;DHT22;4551;53.164;8.210;2023-04-16T07:28:57;9.90;99.90
9033;DHT22;4551;53.164;8.210;2023-04-16T07:31:25;10.00;99.90
9033;DHT22;4551;53.164;8.210;2023-04-16T07:33:58;10.00;99.90
9033;DHT22;4551;53.164;8.210;2023-04-16T07:36:26;10.10;99.90
9033;DHT22;4551;53.164;8.210;2023-04-16T07:38:56;10.10;99.90
9033;DHT22;4551;53.164;8.210;2023-04-16T07:41:24;10.10;99.90
9033;DHT22;4551;53.164;8.210;2023-04-16T07:43:54;10.20;99.90
9033;DHT22;4551;53.164;8.210;2023-04-16T07:46:24;10.20;99.90
9033;DHT22;4551;53.164;8.210;2023-04-16T07:49:01;10.30;99.90
9033;DHT22;4551;53.164;8.210;2023-04-16T07:51:29;10.40;99.90
9033;DHT22;4551;53.164;8.210;2023-04-16T07:54:00;10.40;99.90
9033;DHT22;4551;53.164;8.210;2023-04-16T07:56:28;10.50;99.90
9033;DHT22;4551;53.164;8.210;2023-04-16T07:58:56;10.50;99.90
9033;DHT22;4551;53.164;8.210;2023-04-16T08:01:45;10.50;99.90
9033;DHT22;4551;53.164;8.210;2023-04-16T08:04:14;10.60;99.90
9033;DHT22;4551;53.164;8.210;2023-04-16T08:06:54;10.70;99.90
9033;DHT22;4551;53.164;8.210;2023-04-16T08:09:25;10.70;99.90
9033;DHT22;4551;53.164;8.210;2023-04-16T08:11:53;10.70;99.90
9033;DHT22;4551;53.164;8.210;2023-04-16T08:14:21;10.80;99.90
9033;DHT22;4551;53.164;8.210;2023-04-16T08:16:56;11.00;99.90
9033;DHT22;4551;53.164;8.210;2023-04-16T08:19:24;11.00;99.90
9033;DHT22;4551;53.164;8.210;2023-04-16T08:21:53;11.00;99.90
9033;DHT22;4551;53.164;8.210;2023-04-16T08:24:22;11.00;99.90
9033;DHT22;4551;53.164;8.210;2023-04-16T08:26:50;11.10;99.90
9033;DHT22;4551;53.164;8.210;2023-04-16T08:29:18;11.20;99.90
9033;DHT22;4551;53.164;8.210;2023-04-16T08:31:47;11.30;99.90
9033;DHT22;4551;53.164;8.210;2023-04-16T08:34:17;11.30;99.90
9033;DHT22;4551;53.164;8.210;2023-04-16T08:36:45;11.40;99.90
9033;DHT22;4551;53.164;8.210;2023-04-16T08:39:13;11.40;99.90
9033;DHT22;4551;53.164;8.210;2023-04-16T08:41:42;11.40;99.90
9033;DHT22;4551;53.164;8.210;2023-04-16T08:44:15;11.50;99.90
9033;DHT22;4551;53.164;8.210;2023-04-16T08:46:46;11.50;99.90
9033;DHT22;4551;53.164;8.210;2023-04-16T08:49:15;11.60;99.90
9033;DHT22;4551;53.164;8.210;2023-04-16T08:51:50;11.60;99.90
9033;DHT22;4551;53.164;8.210;2023-04-16T08:54:20;11.70;99.90
9033;DHT22;4551;53.164;8.210;2023-04-16T08:56:52;11.80;99.90
9033;DHT22;4551;53.164;8.210;2023-04-16T08:59:20;11.80;99.90
9033;DHT22;4551;53.164;8.210;2023-04-16T09:01:48;11.90;99.90
9033;DHT22;4551;53.164;8.210;2023-04-16T09:04:18;12.00;99.90
9033;DHT22;4551;53.164;8.210;2023-04-16T09:06:46;11.90;99.90
9033;DHT22;4551;53.164;8.210;2023-04-16T09:09:16;11.80;99.90
9033;DHT22;4551;53.164;8.210;2023-04-16T09:11:45;11.80;99.90
9033;DHT22;4551;53.164;8.210;2023-04-16T09:14:14;11.80;99.90
9033;DHT22;4551;53.164;8.210;2023-04-16T09:16:42;11.80;99.90
9033;DHT22;4551;53.164;8.210;2023-04-16T09:19:11;11.80;99.90
9033;DHT22;4551;53.164;8.210;2023-04-16T09:21:42;11.80;99.90
9033;DHT22;4551;53.164;8.210;2023-04-16T09:24:12;11.80;99.90
9033;DHT22;4551;53.164;8.210;2023-04-16T09:26:42;11.80;99.90
9033;DHT22;4551;53.164;8.210;2023-04-16T09:29:10;11.90;99.90
9033;DHT22;4551;53.164;8.210;2023-04-16T09:31:38;11.90;99.90
9033;DHT22;4551;53.164;8.210;2023-04-16T09:34:07;12.00;99.90
9033;DHT22;4551;53.164;8.210;2023-04-16T09:36:37;12.00;99.90
9033;DHT22;4551;53.164;8.210;2023-04-16T09:39:08;12.10;99.90
9033;DHT22;4551;53.164;8.210;2023-04-16T09:41:46;12.20;99.90
9033;DHT22;4551;53.164;8.210;2023-04-16T09:44:14;12.30;99.90
9033;DHT22;4551;53.164;8.210;2023-04-16T09:46:42;12.30;99.90
9033;DHT22;4551;53.164;8.210;2023-04-16T09:49:12;12.30;99.90
9033;DHT22;4551;53.164;8.210;2023-04-16T09:51:44;12.30;99.90
9033;DHT22;4551;53.164;8.210;2023-04-16T09:54:13;12.40;99.90
9033;DHT22;4551;53.164;8.210;2023-04-16T09:56:42;12.40;99.90
9033;DHT22;4551;53.164;8.210;2023-04-16T09:59:16;12.40;99.90
9033;DHT22;4551;53.164;8.210;2023-04-16T10:01:47;12.40;99.90
9033;DHT22;4551;53.164;8.210;2023-04-16T10:04:16;12.40;99.90
9033;DHT22;4551;53.164;8.210;2023-04-16T10:06:44;12.50;99.90
9033;DHT22;4551;53.164;8.210;2023-04-16T10:09:30;12.60;99.90
9033;DHT22;4551;53.164;8.210;2023-04-16T10:11:58;12.80;99.90
9033;DHT22;4551;53.164;8.210;2023-04-16T10:17:20;12.90;99.90
9033;DHT22;4551;53.164;8.210;2023-04-16T10:19:49;13.00;99.90
9033;DHT22;4551;53.164;8.210;2023-04-16T10:22:17;13.10;99.90
9033;DHT22;4551;53.164;8.210;2023-04-16T10:24:46;13.10;99.90
9033;DHT22;4551;53.164;8.210;2023-04-16T10:27:14;13.10;99.90
9033;DHT22;4551;53.164;8.210;2023-04-16T10:29:47;13.00;99.90
9033;DHT22;4551;53.164;8.210;2023-04-16T10:32:15;13.00;99.90
9033;DHT22;4551;53.164;8.210;2023-04-16T10:34:45;13.10;99.90
9033;DHT22;4551;53.164;8.210;2023-04-16T10:37:14;13.20;99.90
9033;DHT22;4551;53.164;8.210;2023-04-16T10:39:43;13.40;99.90
9033;DHT22;4551;53.164;8.210;2023-04-16T10:42:11;13.50;99.90
9033;DHT22;4551;53.164;8.210;2023-04-16T10:44:45;13.60;99.90
9033;DHT22;4551;53.164;8.210;2023-04-16T10:47:13;13.60;99.90
9033;DHT22;4551;53.164;8.210;2023-04-16T10:49:47;13.80;99.90
9033;DHT22;4551;53.164;8.210;2023-04-16T10:52:15;13.80;99.90
9033;DHT22;4551;53.164;8.210;2023-04-16T10:54:43;13.80;99.90
9033;DHT22;4551;53.164;8.210;2023-04-16T10:57:14;13.90;99.90
9033;DHT22;4551;53.164;8.210;2023-04-16T10:59:45;14.00;99.90
9033;DHT22;4551;53.164;8.210;2023-04-16T11:02:17;14.00;99.90
9033;DHT22;4551;53.164;8.210;2023-04-16T11:04:47;14.20;99.90
9033;DHT22;4551;53.164;8.210;2023-04-16T11:07:17;14.30;99.90
9033;DHT22;4551;53.164;8.210;2023-04-16T11:09:49;14.10;99.90
9033;DHT22;4551;53.164;8.210;2023-04-16T11:12:26;14.00;99.90
9033;DHT22;4551;53.164;8.210;2023-04-16T11:14:59;14.10;99.90
9033;DHT22;4551;53.164;8.210;2023-04-16T11:17:29;14.20;99.90
9033;DHT22;4551;53.164;8.210;2023-04-16T11:19:58;14.20;99.90
9033;DHT22;4551;53.164;8.210;2023-04-16T11:22:27;14.30;99.90
9033;DHT22;4551;53.164;8.210;2023-04-16T11:24:56;14.30;99.90
9033;DHT22;4551;53.164;8.210;2023-04-16T11:27:24;14.40;99.90
9033;DHT22;4551;53.164;8.210;2023-04-16T11:29:56;14.50;99.90
9033;DHT22;4551;53.164;8.210;2023-04-16T11:32:24;14.60;99.90
9033;DHT22;4551;53.164;8.210;2023-04-16T11:34:54;14.70;99.90
9033;DHT22;4551;53.164;8.210;2023-04-16T11:37:31;14.80;99.90
9033;DHT22;4551;53.164;8.210;2023-04-16T11:40:09;15.00;99.90
9033;DHT22;4551;53.164;8.210;2023-04-16T11:42:40;14.90;99.90
9033;DHT22;4551;53.164;8.210;2023-04-16T11:45:09;14.80;99.90
9033;DHT22;4551;53.164;8.210;2023-04-16T11:47:41;14.70;99.90
9033;DHT22;4551;53.164;8.210;2023-04-16T11:50:18;14.70;99.90
9033;DHT22;4551;53.164;8.210;2023-04-16T11:52:48;14.80;99.90
9033;DHT22;4551;53.164;8.210;2023-04-16T11:55:17;14.90;99.90
9033;DHT22;4551;53.164;8.210;2023-04-16T11:57:45;14.80;99.90
9033;DHT22;4551;53.164;8.210;2023-04-16T12:00:13;14.80;99.90
9033;DHT22;4551;53.164;8.210;2023-04-16T12:02:42;15.10;99.90
9033;DHT22;4551;53.164;8.210;2023-04-16T12:05:29;14.90;99.90
9033;DHT22;4551;53.164;8.210;2023-04-16T12:08:02;14.90;99.90
9033;DHT22;4551;53.164;8.210;2023-04-16T12:10:31;14.90;99.90
9033;DHT22;4551;53.164;8.210;2023-04-16T12:13:11;15.00;99.90
9033;DHT22;4551;53.164;8.210;2023-04-16T12:15:42;15.00;99.90
9033;DHT22;4551;53.164;8.210;2023-04-16T12:18:10;15.20;99.90
9033;DHT22;4551;53.164;8.210;2023-04-16T12:20:39;15.20;99.90
9033;DHT22;4551;53.164;8.210;2023-04-16T12:23:24;15.30;99.90
9033;DHT22;4551;53.164;8.210;2023-04-16T12:25:53;15.60;99.90
9033;DHT22;4551;53.164;8.210;2023-04-16T12:28:28;15.70;99.90
9033;DHT22;4551;53.164;8.210;2023-04-16T12:30:56;15.80;99.90
9033;DHT22;4551;53.164;8.210;2023-04-16T12:33:25;15.80;99.90
9033;DHT22;4551;53.164;8.210;2023-04-16T12:35:53;15.80;99.90
9033;DHT22;4551;53.164;8.210;2023-04-16T12:38:21;15.70;99.90
9033;DHT22;4551;53.164;8.210;2023-04-16T12:40:51;15.80;99.90
9033;DHT22;4551;53.164;8.210;2023-04-16T12:43:22;16.00;99.90
9033;DHT22;4551;53.164;8.210;2023-04-16T12:45:51;16.20;99.90
9033;DHT22;4551;53.164;8.210;2023-04-16T12:48:19;16.30;99.90
9033;DHT22;4551;53.164;8.210;2023-04-16T12:50:52;16.40;99.90
9033;DHT22;4551;53.164;8.210;2023-04-16T12:53:20;16.00;99.90
9033;DHT22;4551;53.164;8.210;2023-04-16T12:55:52;16.20;99.90
9033;DHT22;4551;53.164;8.210;2023-04-16T12:58:22;15.30;99.90
9033;DHT22;4551;53.164;8.210;2023-04-16T13:00:50;16.30;99.90
9033;DHT22;4551;53.164;8.210;2023-04-16T13:03:25;16.40;99.90
9033;DHT22;4551;53.164;8.210;2023-04-16T13:05:53;16.50;99.90
9033;DHT22;4551;53.164;8.210;2023-04-16T13:08:25;16.70;99.90
9033;DHT22;4551;53.164;8.210;2023-04-16T13:10:55;16.80;99.90
9033;DHT22;4551;53.164;8.210;2023-04-16T13:13:23;17.00;99.90
9033;DHT22;4551;53.164;8.210;2023-04-16T13:15:51;17.00;99.90
9033;DHT22;4551;53.164;8.210;2023-04-16T13:18:19;16.90;99.90
9033;DHT22;4551;53.164;8.210;2023-04-16T13:20:47;17.00;99.90
9033;DHT22;4551;53.164;8.210;2023-04-16T13:23:20;16.70;99.90
9033;DHT22;4551;53.164;8.210;2023-04-16T13:25:48;16.90;99.90
9033;DHT22;4551;53.164;8.210;2023-04-16T13:28:17;17.00;99.90
9033;DHT22;4551;53.164;8.210;2023-04-16T13:30:45;17.20;99.90
9033;DHT22;4551;53.164;8.210;2023-04-16T13:33:13;17.30;99.90
9033;DHT22;4551;53.164;8.210;2023-04-16T13:35:42;17.30;99.90
9033;DHT22;4551;53.164;8.210;2023-04-16T13:38:13;17.40;99.90
9033;DHT22;4551;53.164;8.210;2023-04-16T13:40:41;17.40;99.90
9033;DHT22;4551;53.164;8.210;2023-04-16T13:43:09;17.40;99.90
9033;DHT22;4551;53.164;8.210;2023-04-16T13:45:40;17.60;99.90
9033;DHT22;4551;53.164;8.210;2023-04-16T13:48:10;17.90;99.90
9033;DHT22;4551;53.164;8.210;2023-04-16T13:50:39;17.80;99.90
9033;DHT22;4551;53.164;8.210;2023-04-16T13:53:07;17.90;99.90
9033;DHT22;4551;53.164;8.210;2023-04-16T13:55:35;18.00;99.90
9033;DHT22;4551;53.164;8.210;2023-04-16T13:58:03;18.10;99.90
9033;DHT22;4551;53.164;8.210;2023-04-16T14:00:34;17.90;99.90
9033;DHT22;4551;53.164;8.210;2023-04-16T14:03:04;18.00;99.90
9033;DHT22;4551;53.164;8.210;2023-04-16T14:05:33;18.10;99.90
9033;DHT22;4551;53.164;8.210;2023-04-16T14:08:01;18.20;99.90
9033;DHT22;4551;53.164;8.210;2023-04-16T14:10:30;18.30;99.90
9033;DHT22;4551;53.164;8.210;2023-04-16T14:12:58;18.50;99.90
9033;DHT22;4551;53.164;8.210;2023-04-16T14:15:28;18.50;99.90
9033;DHT22;4551;53.164;8.210;2023-04-16T14:17:56;18.50;99.90
9033;DHT22;4551;53.164;8.210;2023-04-16T14:20:27;18.40;99.90
9033;DHT22;4551;53.164;8.210;2023-04-16T14:22:55;18.40;99.90
9033;DHT22;4551;53.164;8.210;2023-04-16T14:25:23;18.30;99.90
9033;DHT22;4551;53.164;8.210;2023-04-16T14:27:51;18.20;99.90
9033;DHT22;4551;53.164;8.210;2023-04-16T14:30:22;18.00;99.90
9033;DHT22;4551;53.164;8.210;2023-04-16T14:32:50;17.90;99.90
9033;DHT22;4551;53.164;8.210;2023-04-16T14:35:18;17.60;99.90
9033;DHT22;4551;53.164;8.210;2023-04-16T14:37:47;17.30;99.90
9033;DHT22;4551;53.164;8.210;2023-04-16T14:40:17;17.40;99.90
9033;DHT22;4551;53.164;8.210;2023-04-16T14:42:45;17.40;99.90
9033;DHT22;4551;53.164;8.210;2023-04-16T14:45:13;17.50;99.90
9033;DHT22;4551;53.164;8.210;2023-04-16T14:47:41;17.70;99.90
9033;DHT22;4551;53.164;8.210;2023-04-16T14:50:13;18.00;99.90
9033;DHT22;4551;53.164;8.210;2023-04-16T14:52:41;18.20;99.90
9033;DHT22;4551;53.164;8.210;2023-04-16T14:55:11;18.40;99.90
9033;DHT22;4551;53.164;8.210;2023-04-16T14:57:39;18.40;99.90
9033;DHT22;4551;53.164;8.210;2023-04-16T15:00:08;18.50;99.90
9033;DHT22;4551;53.164;8.210;2023-04-16T15:02:37;18.60;99.90
9033;DHT22;4551;53.164;8.210;2023-04-16T15:05:05;18.50;99.90
9033;DHT22;4551;53.164;8.210;2023-04-16T15:07:36;18.50;99.90
9033;DHT22;4551;53.164;8.210;2023-04-16T15:10:04;18.50;99.90
9033;DHT22;4551;53.164;8.210;2023-04-16T15:12:34;18.40;99.90
9033;DHT22;4551;53.164;8.210;2023-04-16T15:15:02;18.60;99.90
9033;DHT22;4551;53.164;8.210;2023-04-16T15:17:31;18.50;99.90
9033;DHT22;4551;53.164;8.210;2023-04-16T15:19:59;18.40;99.90
9033;DHT22;4551;53.164;8.210;2023-04-16T15:22:27;17.80;99.90
9033;DHT22;4551;53.164;8.210;2023-04-16T15:24:56;17.60;99.90
9033;DHT22;4551;53.164;8.210;2023-04-16T15:27:25;17.60;99.90
9033;DHT22;4551;53.164;8.210;2023-04-16T15:29:54;17.40;99.90
9033;DHT22;4551;53.164;8.210;2023-04-16T15:32:22;17.10;99.90
9033;DHT22;4551;53.164;8.210;2023-04-16T15:34:50;17.10;99.90
9033;DHT22;4551;53.164;8.210;2023-04-16T15:37:18;17.10;99.90
9033;DHT22;4551;53.164;8.210;2023-04-16T15:39:48;17.00;99.90
9033;DHT22;4551;53.164;8.210;2023-04-16T15:42:19;16.90;99.90
9033;DHT22;4551;53.164;8.210;2023-04-16T15:44:47;16.90;99.90
9033;DHT22;4551;53.164;8.210;2023-04-16T15:47:17;16.80;99.90
9033;DHT22;4551;53.164;8.210;2023-04-16T15:49:45;16.90;99.90
9033;DHT22;4551;53.164;8.210;2023-04-16T15:52:14;16.90;99.90
9033;DHT22;4551;53.164;8.210;2023-04-16T15:54:44;16.80;99.90
9033;DHT22;4551;53.164;8.210;2023-04-16T15:57:12;16.70;99.90
9033;DHT22;4551;53.164;8.210;2023-04-16T15:59:49;16.60;99.90
9033;DHT22;4551;53.164;8.210;2023-04-16T16:02:39;16.50;99.90
9033;DHT22;4551;53.164;8.210;2023-04-16T16:05:08;16.40;99.90
9033;DHT22;4551;53.164;8.210;2023-04-16T16:07:36;16.30;99.90
9033;DHT22;4551;53.164;8.210;2023-04-16T16:10:05;16.20;99.90
9033;DHT22;4551;53.164;8.210;2023-04-16T16:12:33;16.10;99.90
9033;DHT22;4551;53.164;8.210;2023-04-16T16:15:06;16.00;99.90
9033;DHT22;4551;53.164;8.210;2023-04-16T16:17:36;15.80;99.90
9033;DHT22;4551;53.164;8.210;2023-04-16T16:20:06;15.70;99.90
9033;DHT22;4551;53.164;8.210;2023-04-16T16:22:36;15.60;99.90
9033;DHT22;4551;53.164;8.210;2023-04-16T16:25:05;15.60;99.90
9033;DHT22;4551;53.164;8.210;2023-04-16T16:27:34;15.50;99.90